sensor_id;sensor_type;location;lat;lon;timestamp;P1;durP1;ratioP1;P2;durP2;ratioP2
8361;SDS011;4218;48.326;14.304;2022-10-16T00:02:22;8.37;;;7.97;;
8361;SDS011;4218;48.326;14.304;2022-10-16T00:04:48;9.43;;;9.00;;
8361;SDS011;4218;48.326;14.304;2022-10-16T00:07:13;8.37;;;7.97;;
8361;SDS011;4218;48.326;14.304;2022-10-16T00:09:39;9.27;;;8.77;;
8361;SDS011;4218;48.326;14.304;2022-10-16T00:12:04;9.00;;;8.50;;
8361;SDS011;4218;48.326;14.304;2022-10-16T00:14:31;8.30;;;7.87;;
8361;SDS011;4218;48.326;14.304;2022-10-16T00:16:57;9.07;;;8.67;;
8361;SDS011;4218;48.326;14.304;2022-10-16T00:19:22;9.10;;;8.50;;
8361;SDS011;4218;48.326;14.304;2022-10-16T00:21:47;7.80;;;7.30;;
8361;SDS011;4218;48.326;14.304;2022-10-16T00:24:13;7.17;;;6.87;;
8361;SDS011;4218;48.326;14.304;2022-10-16T00:26:38;8.20;;;7.70;;
8361;SDS011;4218;48.326;14.304;2022-10-16T00:29:05;8.77;;;8.27;;
8361;SDS011;4218;48.326;14.304;2022-10-16T00:31:31;8.07;;;7.63;;
8361;SDS011;4218;48.326;14.304;2022-10-16T00:33:57;9.27;;;8.87;;
8361;SDS011;4218;48.326;14.304;2022-10-16T00:36:23;8.03;;;7.47;;
8361;SDS011;4218;48.326;14.304;2022-10-16T00:38:50;8.73;;;8.13;;
8361;SDS011;4218;48.326;14.304;2022-10-16T00:41:18;9.37;;;8.63;;
8361;SDS011;4218;48.326;14.304;2022-10-16T00:43:47;8.77;;;8.20;;
8361;SDS011;4218;48.326;14.304;2022-10-16T00:46:21;9.20;;;8.70;;
8361;SDS011;4218;48.326;14.304;2022-10-16T00:48:52;10.97;;;8.53;;
8361;SDS011;4218;48.326;14.304;2022-10-16T00:51:30;8.50;;;8.13;;
8361;SDS011;4218;48.326;14.304;2022-10-16T00:53:58;8.63;;;8.23;;
8361;SDS011;4218;48.326;14.304;2022-10-16T00:56:24;9.50;;;9.10;;
8361;SDS011;4218;48.326;14.304;2022-10-16T00:58:50;8.37;;;7.97;;
8361;SDS011;4218;48.326;14.304;2022-10-16T01:01:15;7.80;;;7.40;;
8361;SDS011;4218;48.326;14.304;2022-10-16T01:03:41;8.50;;;8.10;;
8361;SDS011;4218;48.326;14.304;2022-10-16T01:06:23;8.30;;;7.60;;
8361;SDS011;4218;48.326;14.304;2022-10-16T01:12:09;9.47;;;8.97;;
8361;SDS011;4218;48.326;14.304;2022-10-16T01:14:45;9.70;;;9.17;;
8361;SDS011;4218;48.326;14.304;2022-10-16T01:17:18;9.53;;;8.97;;
8361;SDS011;4218;48.326;14.304;2022-10-16T01:20:03;9.13;;;8.73;;
8361;SDS011;4218;48.326;14.304;2022-10-16T01:28:53;10.10;;;9.60;;
8361;SDS011;4218;48.326;14.304;2022-10-16T01:31:24;7.77;;;7.47;;
8361;SDS011;4218;48.326;14.304;2022-10-16T01:33:56;10.53;;;10.03;;
8361;SDS011;4218;48.326;14.304;2022-10-16T01:36:50;9.23;;;8.73;;
8361;SDS011;4218;48.326;14.304;2022-10-16T01:39:18;11.43;;;10.83;;
8361;SDS011;4218;48.326;14.304;2022-10-16T01:41:58;11.40;;;10.80;;
8361;SDS011;4218;48.326;14.304;2022-10-16T01:44:31;10.83;;;10.33;;
8361;SDS011;4218;48.326;14.304;2022-10-16T01:46:58;10.53;;;9.93;;
8361;SDS011;4218;48.326;14.304;2022-10-16T01:49:25;11.43;;;10.68;;
8361;SDS011;4218;48.326;14.304;2022-10-16T01:51:55;7.90;;;7.40;;
8361;SDS011;4218;48.326;14.304;2022-10-16T01:54:23;8.67;;;8.13;;
8361;SDS011;4218;48.326;14.304;2022-10-16T01:56:52;10.60;;;8.33;;
8361;SDS011;4218;48.326;14.304;2022-10-16T01:59:21;8.20;;;7.40;;
8361;SDS011;4218;48.326;14.304;2022-10-16T02:01:50;8.90;;;8.40;;
8361;SDS011;4218;48.326;14.304;2022-10-16T02:04:30;11.23;;;10.73;;
8361;SDS011;4218;48.326;14.304;2022-10-16T02:06:59;12.07;;;11.47;;
8361;SDS011;4218;48.326;14.304;2022-10-16T02:09:25;9.23;;;8.73;;
8361;SDS011;4218;48.326;14.304;2022-10-16T02:11:52;10.30;;;9.90;;
8361;SDS011;4218;48.326;14.304;2022-10-16T02:14:19;9.30;;;8.80;;
8361;SDS011;4218;48.326;14.304;2022-10-16T02:16:47;10.20;;;9.70;;
8361;SDS011;4218;48.326;14.304;2022-10-16T02:19:12;9.07;;;8.67;;
8361;SDS011;4218;48.326;14.304;2022-10-16T02:21:44;8.40;;;7.93;;
8361;SDS011;4218;48.326;14.304;2022-10-16T02:24:22;7.63;;;7.23;;
8361;SDS011;4218;48.326;14.304;2022-10-16T02:26:53;7.07;;;6.77;;
8361;SDS011;4218;48.326;14.304;2022-10-16T02:29:42;7.17;;;6.87;;
8361;SDS011;4218;48.326;14.304;2022-10-16T02:32:15;9.53;;;9.13;;
8361;SDS011;4218;48.326;14.304;2022-10-16T02:34:45;8.10;;;7.60;;
8361;SDS011;4218;48.326;14.304;2022-10-16T02:37:13;8.63;;;8.17;;
8361;SDS011;4218;48.326;14.304;2022-10-16T02:39:39;8.43;;;8.03;;
8361;SDS011;4218;48.326;14.304;2022-10-16T02:42:09;8.50;;;8.10;;
8361;SDS011;4218;48.326;14.304;2022-10-16T02:44:36;8.97;;;8.07;;
8361;SDS011;4218;48.326;14.304;2022-10-16T02:47:01;7.83;;;7.53;;
8361;SDS011;4218;48.326;14.304;2022-10-16T02:49:27;9.43;;;8.83;;
8361;SDS011;4218;48.326;14.304;2022-10-16T02:51:52;10.43;;;9.83;;
8361;SDS011;4218;48.326;14.304;2022-10-16T02:54:18;8.07;;;7.67;;
8361;SDS011;4218;48.326;14.304;2022-10-16T02:56:43;8.63;;;8.17;;
8361;SDS011;4218;48.326;14.304;2022-10-16T02:59:09;12.50;;;11.97;;
8361;SDS011;4218;48.326;14.304;2022-10-16T03:01:34;10.73;;;10.10;;
8361;SDS011;4218;48.326;14.304;2022-10-16T03:04:00;11.73;;;10.73;;
8361;SDS011;4218;48.326;14.304;2022-10-16T03:06:25;9.03;;;8.20;;
8361;SDS011;4218;48.326;14.304;2022-10-16T03:08:50;10.20;;;9.50;;
8361;SDS011;4218;48.326;14.304;2022-10-16T03:11:16;12.67;;;12.07;;
8361;SDS011;4218;48.326;14.304;2022-10-16T03:13:41;7.60;;;7.00;;
8361;SDS011;4218;48.326;14.304;2022-10-16T03:16:06;9.90;;;9.40;;
8361;SDS011;4218;48.326;14.304;2022-10-16T03:18:32;11.60;;;10.90;;
8361;SDS011;4218;48.326;14.304;2022-10-16T03:20:57;10.23;;;9.73;;
8361;SDS011;4218;48.326;14.304;2022-10-16T03:23:23;10.50;;;9.63;;
8361;SDS011;4218;48.326;14.304;2022-10-16T03:25:48;8.97;;;8.57;;
8361;SDS011;4218;48.326;14.304;2022-10-16T03:28:13;7.47;;;7.17;;
8361;SDS011;4218;48.326;14.304;2022-10-16T03:30:39;8.97;;;8.57;;
8361;SDS011;4218;48.326;14.304;2022-10-16T03:33:04;8.60;;;8.20;;
8361;SDS011;4218;48.326;14.304;2022-10-16T03:35:30;7.80;;;7.40;;
8361;SDS011;4218;48.326;14.304;2022-10-16T03:37:57;9.63;;;9.13;;
8361;SDS011;4218;48.326;14.304;2022-10-16T03:40:22;11.50;;;10.80;;
8361;SDS011;4218;48.326;14.304;2022-10-16T03:42:48;8.00;;;7.70;;
8361;SDS011;4218;48.326;14.304;2022-10-16T03:45:13;8.60;;;8.27;;
8361;SDS011;4218;48.326;14.304;2022-10-16T03:47:39;8.33;;;8.03;;
8361;SDS011;4218;48.326;14.304;2022-10-16T03:50:04;8.37;;;7.97;;
8361;SDS011;4218;48.326;14.304;2022-10-16T03:52:30;7.33;;;7.03;;
8361;SDS011;4218;48.326;14.304;2022-10-16T03:54:57;8.90;;;8.50;;
8361;SDS011;4218;48.326;14.304;2022-10-16T03:57:22;9.57;;;8.67;;
8361;SDS011;4218;48.326;14.304;2022-10-16T03:59:48;8.03;;;7.67;;
8361;SDS011;4218;48.326;14.304;2022-10-16T04:02:13;8.90;;;8.47;;
8361;SDS011;4218;48.326;14.304;2022-10-16T04:04:38;10.30;;;9.63;;
8361;SDS011;4218;48.326;14.304;2022-10-16T04:07:04;11.17;;;10.30;;
8361;SDS011;4218;48.326;14.304;2022-10-16T04:09:29;9.63;;;9.23;;
8361;SDS011;4218;48.326;14.304;2022-10-16T04:11:55;9.40;;;8.80;;
8361;SDS011;4218;48.326;14.304;2022-10-16T04:14:20;8.97;;;8.60;;
8361;SDS011;4218;48.326;14.304;2022-10-16T04:16:46;8.73;;;8.33;;
8361;SDS011;4218;48.326;14.304;2022-10-16T04:19:11;9.97;;;9.57;;
8361;SDS011;4218;48.326;14.304;2022-10-16T04:21:37;10.03;;;9.63;;
8361;SDS011;4218;48.326;14.304;2022-10-16T04:24:02;9.63;;;9.13;;
8361;SDS011;4218;48.326;14.304;2022-10-16T04:26:28;7.60;;;7.30;;
8361;SDS011;4218;48.326;14.304;2022-10-16T04:28:54;8.07;;;7.67;;
8361;SDS011;4218;48.326;14.304;2022-10-16T04:31:19;7.37;;;7.07;;
8361;SDS011;4218;48.326;14.304;2022-10-16T04:33:45;7.97;;;7.57;;
8361;SDS011;4218;48.326;14.304;2022-10-16T04:36:10;6.93;;;6.63;;
8361;SDS011;4218;48.326;14.304;2022-10-16T04:38:36;8.57;;;8.17;;
8361;SDS011;4218;48.326;14.304;2022-10-16T04:41:02;7.67;;;7.27;;
8361;SDS011;4218;48.326;14.304;2022-10-16T04:43:28;7.90;;;7.60;;
8361;SDS011;4218;48.326;14.304;2022-10-16T04:45:53;8.17;;;7.87;;
8361;SDS011;4218;48.326;14.304;2022-10-16T04:48:19;7.57;;;7.17;;
8361;SDS011;4218;48.326;14.304;2022-10-16T04:50:45;8.13;;;7.70;;
8361;SDS011;4218;48.326;14.304;2022-10-16T04:53:10;8.00;;;7.60;;
8361;SDS011;4218;48.326;14.304;2022-10-16T04:55:36;8.17;;;7.60;;
8361;SDS011;4218;48.326;14.304;2022-10-16T04:58:02;7.63;;;7.23;;
8361;SDS011;4218;48.326;14.304;2022-10-16T05:00:28;7.27;;;6.87;;
8361;SDS011;4218;48.326;14.304;2022-10-16T05:02:53;7.90;;;7.20;;
8361;SDS011;4218;48.326;14.304;2022-10-16T05:05:18;8.47;;;7.97;;
8361;SDS011;4218;48.326;14.304;2022-10-16T05:07:47;12.18;;;11.50;;
8361;SDS011;4218;48.326;14.304;2022-10-16T05:10:14;6.87;;;6.53;;
8361;SDS011;4218;48.326;14.304;2022-10-16T05:12:40;9.27;;;8.77;;
8361;SDS011;4218;48.326;14.304;2022-10-16T05:15:06;9.57;;;9.07;;
8361;SDS011;4218;48.326;14.304;2022-10-16T05:17:31;10.30;;;9.73;;
8361;SDS011;4218;48.326;14.304;2022-10-16T05:19:57;10.87;;;10.17;;
8361;SDS011;4218;48.326;14.304;2022-10-16T05:22:22;8.77;;;8.37;;
8361;SDS011;4218;48.326;14.304;2022-10-16T05:24:47;9.40;;;8.87;;
8361;SDS011;4218;48.326;14.304;2022-10-16T05:27:13;9.43;;;8.83;;
8361;SDS011;4218;48.326;14.304;2022-10-16T05:29:44;9.33;;;8.83;;
8361;SDS011;4218;48.326;14.304;2022-10-16T05:32:11;9.87;;;9.37;;
8361;SDS011;4218;48.326;14.304;2022-10-16T05:34:37;9.53;;;9.13;;
8361;SDS011;4218;48.326;14.304;2022-10-16T05:37:03;8.93;;;8.47;;
8361;SDS011;4218;48.326;14.304;2022-10-16T05:39:28;7.87;;;7.57;;
8361;SDS011;4218;48.326;14.304;2022-10-16T05:41:53;9.47;;;8.57;;
8361;SDS011;4218;48.326;14.304;2022-10-16T05:44:19;8.03;;;7.53;;
8361;SDS011;4218;48.326;14.304;2022-10-16T05:46:46;11.13;;;10.53;;
8361;SDS011;4218;48.326;14.304;2022-10-16T05:49:11;8.13;;;7.63;;
8361;SDS011;4218;48.326;14.304;2022-10-16T05:51:37;10.73;;;10.23;;
8361;SDS011;4218;48.326;14.304;2022-10-16T05:54:02;13.93;;;12.90;;
8361;SDS011;4218;48.326;14.304;2022-10-16T05:56:27;13.03;;;12.30;;
8361;SDS011;4218;48.326;14.304;2022-10-16T05:58:53;10.77;;;10.27;;
8361;SDS011;4218;48.326;14.304;2022-10-16T06:01:19;10.13;;;9.63;;
8361;SDS011;4218;48.326;14.304;2022-10-16T06:03:45;8.33;;;7.93;;
8361;SDS011;4218;48.326;14.304;2022-10-16T06:06:12;8.60;;;7.90;;
8361;SDS011;4218;48.326;14.304;2022-10-16T06:08:42;9.37;;;8.90;;
8361;SDS011;4218;48.326;14.304;2022-10-16T06:11:09;8.50;;;8.10;;
8361;SDS011;4218;48.326;14.304;2022-10-16T06:13:36;8.87;;;8.47;;
8361;SDS011;4218;48.326;14.304;2022-10-16T06:16:02;8.97;;;8.37;;
8361;SDS011;4218;48.326;14.304;2022-10-16T06:18:28;8.67;;;8.07;;
8361;SDS011;4218;48.326;14.304;2022-10-16T06:20:55;8.70;;;8.30;;
8361;SDS011;4218;48.326;14.304;2022-10-16T06:23:21;9.18;;;8.68;;
8361;SDS011;4218;48.326;14.304;2022-10-16T06:25:47;7.40;;;7.10;;
8361;SDS011;4218;48.326;14.304;2022-10-16T06:28:14;8.27;;;7.77;;
8361;SDS011;4218;48.326;14.304;2022-10-16T06:30:40;8.37;;;8.00;;
8361;SDS011;4218;48.326;14.304;2022-10-16T06:33:08;9.87;;;9.33;;
8361;SDS011;4218;48.326;14.304;2022-10-16T06:35:34;9.93;;;9.37;;
8361;SDS011;4218;48.326;14.304;2022-10-16T06:37:59;9.37;;;8.67;;
8361;SDS011;4218;48.326;14.304;2022-10-16T06:40:25;10.53;;;9.73;;
8361;SDS011;4218;48.326;14.304;2022-10-16T06:42:50;9.20;;;8.63;;
8361;SDS011;4218;48.326;14.304;2022-10-16T06:45:17;10.60;;;10.00;;
8361;SDS011;4218;48.326;14.304;2022-10-16T06:47:42;12.27;;;11.17;;
8361;SDS011;4218;48.326;14.304;2022-10-16T06:50:09;11.27;;;10.57;;
8361;SDS011;4218;48.326;14.304;2022-10-16T06:52:34;11.17;;;10.47;;
8361;SDS011;4218;48.326;14.304;2022-10-16T06:55:00;10.17;;;9.47;;
8361;SDS011;4218;48.326;14.304;2022-10-16T06:57:25;9.77;;;9.23;;
8361;SDS011;4218;48.326;14.304;2022-10-16T06:59:51;10.30;;;9.63;;
8361;SDS011;4218;48.326;14.304;2022-10-16T07:02:16;9.50;;;8.90;;
8361;SDS011;4218;48.326;14.304;2022-10-16T07:04:42;9.60;;;9.00;;
8361;SDS011;4218;48.326;14.304;2022-10-16T07:07:07;9.77;;;9.17;;
8361;SDS011;4218;48.326;14.304;2022-10-16T07:09:32;10.10;;;9.40;;
8361;SDS011;4218;48.326;14.304;2022-10-16T07:11:58;10.40;;;9.70;;
8361;SDS011;4218;48.326;14.304;2022-10-16T07:14:23;9.97;;;9.37;;
8361;SDS011;4218;48.326;14.304;2022-10-16T07:16:49;9.33;;;8.83;;
8361;SDS011;4218;48.326;14.304;2022-10-16T07:19:14;9.40;;;8.70;;
8361;SDS011;4218;48.326;14.304;2022-10-16T07:21:42;9.17;;;8.67;;
8361;SDS011;4218;48.326;14.304;2022-10-16T07:24:12;8.53;;;8.00;;
8361;SDS011;4218;48.326;14.304;2022-10-16T07:26:39;8.80;;;8.20;;
8361;SDS011;4218;48.326;14.304;2022-10-16T07:29:06;9.10;;;8.57;;
8361;SDS011;4218;48.326;14.304;2022-10-16T07:31:36;9.13;;;8.53;;
8361;SDS011;4218;48.326;14.304;2022-10-16T07:34:01;8.30;;;7.80;;
8361;SDS011;4218;48.326;14.304;2022-10-16T07:36:27;16.43;;;15.43;;
8361;SDS011;4218;48.326;14.304;2022-10-16T07:38:52;11.90;;;11.20;;
8361;SDS011;4218;48.326;14.304;2022-10-16T07:41:19;11.30;;;10.30;;
8361;SDS011;4218;48.326;14.304;2022-10-16T07:43:48;11.50;;;10.80;;
8361;SDS011;4218;48.326;14.304;2022-10-16T07:46:16;11.53;;;10.93;;
8361;SDS011;4218;48.326;14.304;2022-10-16T07:48:42;10.70;;;10.10;;
8361;SDS011;4218;48.326;14.304;2022-10-16T07:51:10;11.73;;;10.60;;
8361;SDS011;4218;48.326;14.304;2022-10-16T07:53:36;11.83;;;11.03;;
8361;SDS011;4218;48.326;14.304;2022-10-16T07:56:03;12.30;;;11.40;;
8361;SDS011;4218;48.326;14.304;2022-10-16T07:58:30;12.30;;;11.23;;
8361;SDS011;4218;48.326;14.304;2022-10-16T08:00:55;14.47;;;13.37;;
8361;SDS011;4218;48.326;14.304;2022-10-16T08:03:21;15.87;;;14.27;;
8361;SDS011;4218;48.326;14.304;2022-10-16T08:05:47;14.07;;;12.87;;
8361;SDS011;4218;48.326;14.304;2022-10-16T08:08:13;13.67;;;12.47;;
8361;SDS011;4218;48.326;14.304;2022-10-16T08:10:39;15.30;;;13.90;;
8361;SDS011;4218;48.326;14.304;2022-10-16T08:13:05;15.20;;;13.80;;
8361;SDS011;4218;48.326;14.304;2022-10-16T08:15:30;19.43;;;17.80;;
8361;SDS011;4218;48.326;14.304;2022-10-16T08:18:00;16.07;;;14.77;;
8361;SDS011;4218;48.326;14.304;2022-10-16T08:20:27;16.33;;;14.83;;
8361;SDS011;4218;48.326;14.304;2022-10-16T08:22:54;14.30;;;13.00;;
8361;SDS011;4218;48.326;14.304;2022-10-16T08:25:20;17.07;;;12.83;;
8361;SDS011;4218;48.326;14.304;2022-10-16T08:27:47;22.53;;;15.77;;
8361;SDS011;4218;48.326;14.304;2022-10-16T08:30:13;17.60;;;14.87;;
8361;SDS011;4218;48.326;14.304;2022-10-16T08:32:47;19.07;;;16.70;;
8361;SDS011;4218;48.326;14.304;2022-10-16T08:35:13;20.00;;;16.13;;
8361;SDS011;4218;48.326;14.304;2022-10-16T08:37:40;19.30;;;17.23;;
8361;SDS011;4218;48.326;14.304;2022-10-16T08:40:07;29.50;;;22.30;;
8361;SDS011;4218;48.326;14.304;2022-10-16T08:46:03;40.80;;;25.30;;
8361;SDS011;4218;48.326;14.304;2022-10-16T08:48:54;31.57;;;26.13;;
8361;SDS011;4218;48.326;14.304;2022-10-16T08:51:24;37.63;;;24.20;;
8361;SDS011;4218;48.326;14.304;2022-10-16T08:53:58;39.93;;;28.23;;
8361;SDS011;4218;48.326;14.304;2022-10-16T08:56:43;37.90;;;25.97;;
8361;SDS011;4218;48.326;14.304;2022-10-16T08:59:12;32.37;;;24.53;;
8361;SDS011;4218;48.326;14.304;2022-10-16T09:01:42;32.43;;;25.67;;
8361;SDS011;4218;48.326;14.304;2022-10-16T09:04:39;43.13;;;25.43;;
8361;SDS011;4218;48.326;14.304;2022-10-16T09:07:22;35.43;;;24.97;;
8361;SDS011;4218;48.326;14.304;2022-10-16T09:18:30;33.63;;;28.03;;
8361;SDS011;4218;48.326;14.304;2022-10-16T09:21:30;37.00;;;26.60;;
8361;SDS011;4218;48.326;14.304;2022-10-16T09:24:07;38.77;;;28.17;;
8361;SDS011;4218;48.326;14.304;2022-10-16T09:26:37;31.77;;;24.77;;
8361;SDS011;4218;48.326;14.304;2022-10-16T09:29:03;39.87;;;25.87;;
8361;SDS011;4218;48.326;14.304;2022-10-16T09:31:29;46.23;;;26.23;;
8361;SDS011;4218;48.326;14.304;2022-10-16T09:33:57;40.03;;;27.77;;
8361;SDS011;4218;48.326;14.304;2022-10-16T09:36:25;43.03;;;26.03;;
8361;SDS011;4218;48.326;14.304;2022-10-16T09:39:06;38.03;;;23.80;;
8361;SDS011;4218;48.326;14.304;2022-10-16T09:41:36;28.90;;;21.30;;
8361;SDS011;4218;48.326;14.304;2022-10-16T09:44:05;34.03;;;21.87;;
8361;SDS011;4218;48.326;14.304;2022-10-16T09:46:41;36.17;;;25.17;;
8361;SDS011;4218;48.326;14.304;2022-10-16T09:49:23;26.77;;;23.93;;
8361;SDS011;4218;48.326;14.304;2022-10-16T09:51:50;31.50;;;20.10;;
8361;SDS011;4218;48.326;14.304;2022-10-16T09:54:18;24.40;;;21.80;;
8361;SDS011;4218;48.326;14.304;2022-10-16T09:56:44;25.63;;;21.10;;
8361;SDS011;4218;48.326;14.304;2022-10-16T09:59:13;32.30;;;19.33;;
8361;SDS011;4218;48.326;14.304;2022-10-16T10:01:45;24.80;;;18.33;;
8361;SDS011;4218;48.326;14.304;2022-10-16T10:04:15;20.27;;;17.83;;
8361;SDS011;4218;48.326;14.304;2022-10-16T10:06:46;19.93;;;17.80;;
8361;SDS011;4218;48.326;14.304;2022-10-16T10:09:15;22.87;;;17.20;;
8361;SDS011;4218;48.326;14.304;2022-10-16T10:11:51;21.73;;;19.53;;
8361;SDS011;4218;48.326;14.304;2022-10-16T10:14:21;23.60;;;21.20;;
8361;SDS011;4218;48.326;14.304;2022-10-16T10:17:01;21.87;;;19.67;;
8361;SDS011;4218;48.326;14.304;2022-10-16T10:19:36;24.43;;;22.43;;
8361;SDS011;4218;48.326;14.304;2022-10-16T10:27:24;18.27;;;16.83;;
8361;SDS011;4218;48.326;14.304;2022-10-16T10:32:51;17.57;;;15.87;;
8361;SDS011;4218;48.326;14.304;2022-10-16T10:35:24;16.57;;;15.00;;
8361;SDS011;4218;48.326;14.304;2022-10-16T10:40:51;17.10;;;15.33;;
8361;SDS011;4218;48.326;14.304;2022-10-16T10:46:04;15.13;;;13.93;;
8361;SDS011;4218;48.326;14.304;2022-10-16T10:48:49;18.57;;;17.03;;
8361;SDS011;4218;48.326;14.304;2022-10-16T10:51:26;18.07;;;16.47;;
8361;SDS011;4218;48.326;14.304;2022-10-16T10:54:10;17.03;;;15.53;;
8361;SDS011;4218;48.326;14.304;2022-10-16T11:00:02;17.63;;;16.27;;
8361;SDS011;4218;48.326;14.304;2022-10-16T11:05:23;18.33;;;17.07;;
8361;SDS011;4218;48.326;14.304;2022-10-16T11:07:59;15.70;;;14.43;;
8361;SDS011;4218;48.326;14.304;2022-10-16T11:10:28;14.70;;;13.60;;
8361;SDS011;4218;48.326;14.304;2022-10-16T11:16:16;14.93;;;13.83;;
8361;SDS011;4218;48.326;14.304;2022-10-16T11:18:49;12.53;;;11.83;;
8361;SDS011;4218;48.326;14.304;2022-10-16T11:21:24;14.10;;;12.90;;
8361;SDS011;4218;48.326;14.304;2022-10-16T11:24:01;12.37;;;11.57;;
8361;SDS011;4218;48.326;14.304;2022-10-16T11:26:39;11.63;;;10.83;;
8361;SDS011;4218;48.326;14.304;2022-10-16T11:29:17;12.03;;;11.13;;
8361;SDS011;4218;48.326;14.304;2022-10-16T11:31:54;13.40;;;12.57;;
8361;SDS011;4218;48.326;14.304;2022-10-16T11:34:40;14.07;;;13.07;;
8361;SDS011;4218;48.326;14.304;2022-10-16T11:37:20;14.43;;;13.33;;
8361;SDS011;4218;48.326;14.304;2022-10-16T11:40:16;12.13;;;11.33;;
8361;SDS011;4218;48.326;14.304;2022-10-16T11:43:13;14.10;;;13.27;;
8361;SDS011;4218;48.326;14.304;2022-10-16T11:46:03;12.00;;;11.37;;
8361;SDS011;4218;48.326;14.304;2022-10-16T11:48:51;13.47;;;12.57;;
8361;SDS011;4218;48.326;14.304;2022-10-16T11:55:04;12.67;;;11.87;;
8361;SDS011;4218;48.326;14.304;2022-10-16T12:00:21;13.93;;;13.13;;
8361;SDS011;4218;48.326;14.304;2022-10-16T12:02:53;16.27;;;15.13;;
8361;SDS011;4218;48.326;14.304;2022-10-16T12:08:17;19.53;;;18.33;;
8361;SDS011;4218;48.326;14.304;2022-10-16T12:10:44;12.43;;;11.73;;
8361;SDS011;4218;48.326;14.304;2022-10-16T12:16:04;9.50;;;8.93;;
8361;SDS011;4218;48.326;14.304;2022-10-16T12:18:46;11.10;;;10.10;;
8361;SDS011;4218;48.326;14.304;2022-10-16T12:21:13;8.83;;;8.13;;
8361;SDS011;4218;48.326;14.304;2022-10-16T12:23:56;9.17;;;8.77;;
8361;SDS011;4218;48.326;14.304;2022-10-16T12:26:27;10.87;;;10.20;;
8361;SDS011;4218;48.326;14.304;2022-10-16T12:28:55;8.87;;;8.37;;
8361;SDS011;4218;48.326;14.304;2022-10-16T12:31:45;9.47;;;8.87;;
8361;SDS011;4218;48.326;14.304;2022-10-16T12:34:20;8.47;;;8.00;;
8361;SDS011;4218;48.326;14.304;2022-10-16T12:36:47;25.50;;;24.30;;
8361;SDS011;4218;48.326;14.304;2022-10-16T12:39:20;8.90;;;8.27;;
8361;SDS011;4218;48.326;14.304;2022-10-16T12:41:47;8.07;;;7.67;;
8361;SDS011;4218;48.326;14.304;2022-10-16T12:44:23;8.40;;;8.10;;
8361;SDS011;4218;48.326;14.304;2022-10-16T12:46:49;7.83;;;7.53;;
8361;SDS011;4218;48.326;14.304;2022-10-16T12:51:53;7.30;;;7.00;;
8361;SDS011;4218;48.326;14.304;2022-10-16T12:54:20;7.47;;;7.17;;
8361;SDS011;4218;48.326;14.304;2022-10-16T12:57:09;9.53;;;9.13;;
8361;SDS011;4218;48.326;14.304;2022-10-16T13:13:31;8.70;;;8.20;;
8361;SDS011;4218;48.326;14.304;2022-10-16T13:19:28;10.97;;;10.47;;
8361;SDS011;4218;48.326;14.304;2022-10-16T13:24:39;10.40;;;10.00;;
8361;SDS011;4218;48.326;14.304;2022-10-16T13:27:18;10.27;;;9.80;;
8361;SDS011;4218;48.326;14.304;2022-10-16T13:29:53;14.50;;;13.80;;
8361;SDS011;4218;48.326;14.304;2022-10-16T13:32:24;18.37;;;17.57;;
8361;SDS011;4218;48.326;14.304;2022-10-16T13:34:51;12.90;;;12.40;;
8361;SDS011;4218;48.326;14.304;2022-10-16T13:37:19;9.03;;;8.63;;
8361;SDS011;4218;48.326;14.304;2022-10-16T13:39:46;8.10;;;7.80;;
8361;SDS011;4218;48.326;14.304;2022-10-16T13:42:29;8.47;;;8.17;;
8361;SDS011;4218;48.326;14.304;2022-10-16T13:44:55;9.43;;;9.03;;
8361;SDS011;4218;48.326;14.304;2022-10-16T13:49:58;7.80;;;7.50;;
8361;SDS011;4218;48.326;14.304;2022-10-16T13:52:44;9.30;;;8.97;;
8361;SDS011;4218;48.326;14.304;2022-10-16T13:55:11;10.60;;;10.20;;
8361;SDS011;4218;48.326;14.304;2022-10-16T13:57:41;28.73;;;27.37;;
8361;SDS011;4218;48.326;14.304;2022-10-16T14:00:17;30.27;;;28.87;;
8361;SDS011;4218;48.326;14.304;2022-10-16T14:02:44;9.43;;;9.03;;
8361;SDS011;4218;48.326;14.304;2022-10-16T14:05:10;8.57;;;8.27;;
8361;SDS011;4218;48.326;14.304;2022-10-16T14:07:35;7.37;;;7.07;;
8361;SDS011;4218;48.326;14.304;2022-10-16T14:10:06;12.17;;;11.70;;
8361;SDS011;4218;48.326;14.304;2022-10-16T14:12:43;12.10;;;11.60;;
8361;SDS011;4218;48.326;14.304;2022-10-16T14:15:15;18.23;;;17.50;;
8361;SDS011;4218;48.326;14.304;2022-10-16T14:17:43;14.90;;;14.30;;
8361;SDS011;4218;48.326;14.304;2022-10-16T14:20:14;8.50;;;8.10;;
8361;SDS011;4218;48.326;14.304;2022-10-16T14:22:41;7.47;;;7.27;;
8361;SDS011;4218;48.326;14.304;2022-10-16T14:27:45;6.90;;;6.60;;
8361;SDS011;4218;48.326;14.304;2022-10-16T14:30:22;7.37;;;7.07;;
8361;SDS011;4218;48.326;14.304;2022-10-16T14:32:56;7.70;;;7.40;;
8361;SDS011;4218;48.326;14.304;2022-10-16T14:35:23;7.77;;;7.50;;
8361;SDS011;4218;48.326;14.304;2022-10-16T14:37:53;8.07;;;7.77;;
8361;SDS011;4218;48.326;14.304;2022-10-16T14:40:20;7.80;;;7.50;;
8361;SDS011;4218;48.326;14.304;2022-10-16T14:42:49;7.47;;;7.27;;
8361;SDS011;4218;48.326;14.304;2022-10-16T14:45:18;14.87;;;14.27;;
8361;SDS011;4218;48.326;14.304;2022-10-16T14:47:49;11.70;;;11.27;;
8361;SDS011;4218;48.326;14.304;2022-10-16T14:50:17;16.53;;;15.83;;
8361;SDS011;4218;48.326;14.304;2022-10-16T14:52:42;18.57;;;17.77;;
8361;SDS011;4218;48.326;14.304;2022-10-16T14:55:09;13.03;;;12.53;;
8361;SDS011;4218;48.326;14.304;2022-10-16T14:57:35;8.90;;;8.60;;
8361;SDS011;4218;48.326;14.304;2022-10-16T15:00:04;9.20;;;8.80;;
8361;SDS011;4218;48.326;14.304;2022-10-16T15:02:39;12.70;;;12.20;;
8361;SDS011;4218;48.326;14.304;2022-10-16T15:05:18;9.80;;;9.40;;
8361;SDS011;4218;48.326;14.304;2022-10-16T15:07:45;9.40;;;8.83;;
8361;SDS011;4218;48.326;14.304;2022-10-16T15:10:12;9.27;;;8.93;;
8361;SDS011;4218;48.326;14.304;2022-10-16T15:12:38;7.50;;;7.20;;
8361;SDS011;4218;48.326;14.304;2022-10-16T15:17:47;18.57;;;17.77;;
8361;SDS011;4218;48.326;14.304;2022-10-16T15:20:18;11.80;;;11.40;;
8361;SDS011;4218;48.326;14.304;2022-10-16T15:22:44;8.97;;;8.67;;
8361;SDS011;4218;48.326;14.304;2022-10-16T15:27:59;11.53;;;11.03;;
8361;SDS011;4218;48.326;14.304;2022-10-16T15:30:25;11.07;;;10.30;;
8361;SDS011;4218;48.326;14.304;2022-10-16T15:32:51;10.00;;;9.53;;
8361;SDS011;4218;48.326;14.304;2022-10-16T15:35:16;10.70;;;10.20;;
8361;SDS011;4218;48.326;14.304;2022-10-16T15:37:41;11.63;;;11.10;;
8361;SDS011;4218;48.326;14.304;2022-10-16T15:40:08;13.53;;;12.93;;
8361;SDS011;4218;48.326;14.304;2022-10-16T15:42:34;13.57;;;12.30;;
8361;SDS011;4218;48.326;14.304;2022-10-16T15:44:59;9.73;;;9.33;;
8361;SDS011;4218;48.326;14.304;2022-10-16T15:47:25;10.97;;;10.53;;
8361;SDS011;4218;48.326;14.304;2022-10-16T15:49:50;10.73;;;10.23;;
8361;SDS011;4218;48.326;14.304;2022-10-16T15:52:15;9.90;;;9.50;;
8361;SDS011;4218;48.326;14.304;2022-10-16T15:54:42;10.37;;;9.87;;
8361;SDS011;4218;48.326;14.304;2022-10-16T15:57:08;13.23;;;12.63;;
8361;SDS011;4218;48.326;14.304;2022-10-16T15:59:33;14.83;;;13.80;;
8361;SDS011;4218;48.326;14.304;2022-10-16T16:01:59;13.43;;;12.83;;
8361;SDS011;4218;48.326;14.304;2022-10-16T16:04:24;15.33;;;14.67;;
8361;SDS011;4218;48.326;14.304;2022-10-16T16:06:49;11.87;;;11.30;;
8361;SDS011;4218;48.326;14.304;2022-10-16T16:09:15;11.57;;;11.03;;
8361;SDS011;4218;48.326;14.304;2022-10-16T16:11:40;9.60;;;9.20;;
8361;SDS011;4218;48.326;14.304;2022-10-16T16:14:06;7.77;;;7.27;;
8361;SDS011;4218;48.326;14.304;2022-10-16T16:16:35;7.30;;;7.00;;
8361;SDS011;4218;48.326;14.304;2022-10-16T16:19:03;7.43;;;7.13;;
8361;SDS011;4218;48.326;14.304;2022-10-16T16:21:29;8.97;;;8.20;;
8361;SDS011;4218;48.326;14.304;2022-10-16T16:23:55;9.20;;;8.70;;
8361;SDS011;4218;48.326;14.304;2022-10-16T16:26:24;7.40;;;7.10;;
8361;SDS011;4218;48.326;14.304;2022-10-16T16:28:57;8.37;;;7.87;;
8361;SDS011;4218;48.326;14.304;2022-10-16T16:31:26;10.30;;;9.87;;